sensor_id;sensor_type;location;lat;lon;timestamp;P1;durP1;ratioP1;P2;durP2;ratioP2
45077;SDS011;60508;42.622;25.416;2023-06-05T00:00:27;7.32;;;1.95;;
45077;SDS011;60508;42.622;25.416;2023-06-05T00:02:54;7.95;;;2.40;;
45077;SDS011;60508;42.622;25.416;2023-06-05T00:05:21;7.82;;;2.20;;
45077;SDS011;60508;42.622;25.416;2023-06-05T00:07:52;9.38;;;2.08;;
45077;SDS011;60508;42.622;25.416;2023-06-05T00:10:18;6.07;;;2.20;;
45077;SDS011;60508;42.622;25.416;2023-06-05T00:12:45;13.18;;;2.10;;
45077;SDS011;60508;42.622;25.416;2023-06-05T00:15:12;9.43;;;2.38;;
45077;SDS011;60508;42.622;25.416;2023-06-05T00:17:38;5.88;;;2.45;;
45077;SDS011;60508;42.622;25.416;2023-06-05T00:20:05;16.83;;;4.28;;
45077;SDS011;60508;42.622;25.416;2023-06-05T00:22:32;10.73;;;3.08;;
45077;SDS011;60508;42.622;25.416;2023-06-05T00:24:59;9.77;;;2.40;;
45077;SDS011;60508;42.622;25.416;2023-06-05T00:27:27;8.23;;;3.22;;
45077;SDS011;60508;42.622;25.416;2023-06-05T00:29:54;12.35;;;2.97;;
45077;SDS011;60508;42.622;25.416;2023-06-05T00:32:20;4.97;;;2.80;;
45077;SDS011;60508;42.622;25.416;2023-06-05T00:34:56;5.28;;;2.15;;
45077;SDS011;60508;42.622;25.416;2023-06-05T00:37:23;8.73;;;2.22;;
45077;SDS011;60508;42.622;25.416;2023-06-05T00:39:50;14.65;;;3.15;;
45077;SDS011;60508;42.622;25.416;2023-06-05T00:42:17;17.23;;;1.90;;
45077;SDS011;60508;42.622;25.416;2023-06-05T00:44:51;10.00;;;2.22;;
45077;SDS011;60508;42.622;25.416;2023-06-05T00:47:18;8.02;;;1.67;;
45077;SDS011;60508;42.622;25.416;2023-06-05T00:49:45;6.43;;;2.05;;
45077;SDS011;60508;42.622;25.416;2023-06-05T00:52:21;12.85;;;2.13;;
45077;SDS011;60508;42.622;25.416;2023-06-05T00:54:48;11.90;;;2.80;;
45077;SDS011;60508;42.622;25.416;2023-06-05T00:57:15;6.57;;;3.03;;
45077;SDS011;60508;42.622;25.416;2023-06-05T00:59:42;6.13;;;2.03;;
45077;SDS011;60508;42.622;25.416;2023-06-05T01:02:11;11.75;;;2.00;;
45077;SDS011;60508;42.622;25.416;2023-06-05T01:04:42;8.88;;;2.28;;
45077;SDS011;60508;42.622;25.416;2023-06-05T01:07:10;6.03;;;3.33;;
45077;SDS011;60508;42.622;25.416;2023-06-05T01:09:37;7.70;;;2.38;;
45077;SDS011;60508;42.622;25.416;2023-06-05T01:15:17;7.30;;;2.28;;
45077;SDS011;60508;42.622;25.416;2023-06-05T01:17:44;6.32;;;2.67;;
45077;SDS011;60508;42.622;25.416;2023-06-05T01:20:13;10.32;;;2.35;;
45077;SDS011;60508;42.622;25.416;2023-06-05T01:22:40;10.32;;;3.17;;
45077;SDS011;60508;42.622;25.416;2023-06-05T01:25:15;13.40;;;5.32;;
45077;SDS011;60508;42.622;25.416;2023-06-05T01:27:46;15.23;;;4.10;;
45077;SDS011;60508;42.622;25.416;2023-06-05T01:33:33;5.45;;;3.40;;
45077;SDS011;60508;42.622;25.416;2023-06-05T01:36:11;16.67;;;3.72;;
45077;SDS011;60508;42.622;25.416;2023-06-05T01:38:46;15.65;;;4.28;;
45077;SDS011;60508;42.622;25.416;2023-06-05T01:43:43;10.30;;;3.35;;
45077;SDS011;60508;42.622;25.416;2023-06-05T01:46:13;8.10;;;2.50;;
45077;SDS011;60508;42.622;25.416;2023-06-05T01:48:49;5.57;;;3.70;;
45077;SDS011;60508;42.622;25.416;2023-06-05T01:51:17;5.50;;;2.97;;
45077;SDS011;60508;42.622;25.416;2023-06-05T01:53:43;10.18;;;4.07;;
45077;SDS011;60508;42.622;25.416;2023-06-05T01:56:23;11.55;;;4.13;;
45077;SDS011;60508;42.622;25.416;2023-06-05T01:58:50;14.55;;;4.97;;
45077;SDS011;60508;42.622;25.416;2023-06-05T02:01:19;13.35;;;4.55;;
45077;SDS011;60508;42.622;25.416;2023-06-05T02:03:49;11.65;;;4.72;;
45077;SDS011;60508;42.622;25.416;2023-06-05T02:06:17;12.02;;;5.07;;
45077;SDS011;60508;42.622;25.416;2023-06-05T02:08:49;17.33;;;6.20;;
45077;SDS011;60508;42.622;25.416;2023-06-05T02:11:16;22.20;;;6.30;;
45077;SDS011;60508;42.622;25.416;2023-06-05T02:13:43;13.25;;;6.18;;
45077;SDS011;60508;42.622;25.416;2023-06-05T02:16:10;11.63;;;5.18;;
45077;SDS011;60508;42.622;25.416;2023-06-05T02:18:37;15.48;;;3.65;;
45077;SDS011;60508;42.622;25.416;2023-06-05T02:21:04;16.77;;;5.88;;
45077;SDS011;60508;42.622;25.416;2023-06-05T02:23:38;16.02;;;4.90;;
45077;SDS011;60508;42.622;25.416;2023-06-05T02:26:04;8.73;;;3.47;;
45077;SDS011;60508;42.622;25.416;2023-06-05T02:28:31;9.82;;;3.25;;
45077;SDS011;60508;42.622;25.416;2023-06-05T02:30:59;11.07;;;3.88;;
45077;SDS011;60508;42.622;25.416;2023-06-05T02:33:27;9.63;;;3.40;;
45077;SDS011;60508;42.622;25.416;2023-06-05T02:35:54;17.27;;;3.78;;
45077;SDS011;60508;42.622;25.416;2023-06-05T02:38:31;15.07;;;3.83;;
45077;SDS011;60508;42.622;25.416;2023-06-05T02:40:58;8.27;;;4.28;;
45077;SDS011;60508;42.622;25.416;2023-06-05T02:43:24;11.43;;;4.20;;
45077;SDS011;60508;42.622;25.416;2023-06-05T02:45:51;15.70;;;5.30;;
45077;SDS011;60508;42.622;25.416;2023-06-05T02:48:17;9.65;;;3.47;;
45077;SDS011;60508;42.622;25.416;2023-06-05T02:50:52;9.82;;;3.53;;
45077;SDS011;60508;42.622;25.416;2023-06-05T02:53:19;10.38;;;4.03;;
45077;SDS011;60508;42.622;25.416;2023-06-05T02:55:46;9.60;;;3.58;;
45077;SDS011;60508;42.622;25.416;2023-06-05T02:58:24;17.27;;;4.22;;
45077;SDS011;60508;42.622;25.416;2023-06-05T03:00:56;15.27;;;3.92;;
45077;SDS011;60508;42.622;25.416;2023-06-05T03:03:32;11.95;;;6.10;;
45077;SDS011;60508;42.622;25.416;2023-06-05T03:06:00;19.63;;;5.47;;
45077;SDS011;60508;42.622;25.416;2023-06-05T03:08:33;10.00;;;2.75;;
45077;SDS011;60508;42.622;25.416;2023-06-05T03:11:01;14.50;;;4.05;;
45077;SDS011;60508;42.622;25.416;2023-06-05T03:13:28;9.57;;;3.70;;
45077;SDS011;60508;42.622;25.416;2023-06-05T03:15:55;9.65;;;3.20;;
45077;SDS011;60508;42.622;25.416;2023-06-05T03:18:36;10.75;;;3.75;;
45077;SDS011;60508;42.622;25.416;2023-06-05T03:21:04;13.00;;;3.05;;
45077;SDS011;60508;42.622;25.416;2023-06-05T03:23:30;13.15;;;5.53;;
45077;SDS011;60508;42.622;25.416;2023-06-05T03:26:00;12.25;;;3.92;;
45077;SDS011;60508;42.622;25.416;2023-06-05T03:28:28;8.85;;;4.05;;
45077;SDS011;60508;42.622;25.416;2023-06-05T03:31:10;10.90;;;3.08;;
45077;SDS011;60508;42.622;25.416;2023-06-05T03:33:39;9.13;;;2.92;;
45077;SDS011;60508;42.622;25.416;2023-06-05T03:36:06;13.73;;;2.65;;
45077;SDS011;60508;42.622;25.416;2023-06-05T03:38:34;7.63;;;3.20;;
45077;SDS011;60508;42.622;25.416;2023-06-05T03:41:00;15.13;;;3.60;;
45077;SDS011;60508;42.622;25.416;2023-06-05T03:43:27;13.98;;;3.42;;
45077;SDS011;60508;42.622;25.416;2023-06-05T03:45:54;11.05;;;4.65;;
45077;SDS011;60508;42.622;25.416;2023-06-05T03:48:27;13.45;;;4.05;;
45077;SDS011;60508;42.622;25.416;2023-06-05T03:50:55;17.52;;;4.70;;
45077;SDS011;60508;42.622;25.416;2023-06-05T03:53:23;18.67;;;5.50;;
45077;SDS011;60508;42.622;25.416;2023-06-05T03:55:51;19.42;;;4.72;;
45077;SDS011;60508;42.622;25.416;2023-06-05T03:58:24;11.23;;;4.30;;
45077;SDS011;60508;42.622;25.416;2023-06-05T04:00:54;14.95;;;3.85;;
45077;SDS011;60508;42.622;25.416;2023-06-05T04:03:29;13.23;;;4.95;;
45077;SDS011;60508;42.622;25.416;2023-06-05T04:05:56;17.38;;;4.40;;
45077;SDS011;60508;42.622;25.416;2023-06-05T04:08:23;9.05;;;3.50;;
45077;SDS011;60508;42.622;25.416;2023-06-05T04:10:52;11.60;;;3.42;;
45077;SDS011;60508;42.622;25.416;2023-06-05T04:13:27;14.02;;;3.72;;
45077;SDS011;60508;42.622;25.416;2023-06-05T04:15:53;9.85;;;3.97;;
45077;SDS011;60508;42.622;25.416;2023-06-05T04:18:21;10.90;;;3.83;;
45077;SDS011;60508;42.622;25.416;2023-06-05T04:23:25;14.57;;;5.00;;
45077;SDS011;60508;42.622;25.416;2023-06-05T04:25:52;9.98;;;4.53;;
45077;SDS011;60508;42.622;25.416;2023-06-05T04:28:20;9.73;;;3.65;;
45077;SDS011;60508;42.622;25.416;2023-06-05T04:30:57;5.47;;;4.20;;
45077;SDS011;60508;42.622;25.416;2023-06-05T04:33:24;10.93;;;4.18;;
45077;SDS011;60508;42.622;25.416;2023-06-05T04:35:50;11.25;;;4.28;;
45077;SDS011;60508;42.622;25.416;2023-06-05T04:38:19;14.45;;;6.32;;
45077;SDS011;60508;42.622;25.416;2023-06-05T04:40:47;21.15;;;5.72;;
45077;SDS011;60508;42.622;25.416;2023-06-05T04:43:15;14.40;;;6.25;;
45077;SDS011;60508;42.622;25.416;2023-06-05T04:45:41;17.60;;;6.97;;
45077;SDS011;60508;42.622;25.416;2023-06-05T04:48:09;15.40;;;6.73;;
45077;SDS011;60508;42.622;25.416;2023-06-05T04:50:43;15.02;;;6.35;;
45077;SDS011;60508;42.622;25.416;2023-06-05T04:53:12;14.43;;;6.65;;
45077;SDS011;60508;42.622;25.416;2023-06-05T04:55:40;14.85;;;7.47;;
45077;SDS011;60508;42.622;25.416;2023-06-05T04:58:07;12.65;;;5.88;;
45077;SDS011;60508;42.622;25.416;2023-06-05T05:00:33;11.15;;;6.30;;
45077;SDS011;60508;42.622;25.416;2023-06-05T05:03:12;13.23;;;6.73;;
45077;SDS011;60508;42.622;25.416;2023-06-05T05:05:39;21.77;;;6.13;;
45077;SDS011;60508;42.622;25.416;2023-06-05T05:08:06;18.00;;;5.97;;
45077;SDS011;60508;42.622;25.416;2023-06-05T05:10:32;13.70;;;7.00;;
45077;SDS011;60508;42.622;25.416;2023-06-05T05:12:59;15.30;;;6.25;;
45077;SDS011;60508;42.622;25.416;2023-06-05T05:15:45;19.00;;;6.78;;
45077;SDS011;60508;42.622;25.416;2023-06-05T05:18:13;11.50;;;6.53;;
45077;SDS011;60508;42.622;25.416;2023-06-05T05:20:46;12.77;;;6.13;;
45077;SDS011;60508;42.622;25.416;2023-06-05T05:23:13;15.45;;;5.90;;
45077;SDS011;60508;42.622;25.416;2023-06-05T05:25:40;11.95;;;6.05;;
45077;SDS011;60508;42.622;25.416;2023-06-05T05:28:15;17.70;;;7.50;;
45077;SDS011;60508;42.622;25.416;2023-06-05T05:30:43;9.77;;;5.68;;
45077;SDS011;60508;42.622;25.416;2023-06-05T05:33:10;13.82;;;6.18;;
45077;SDS011;60508;42.622;25.416;2023-06-05T05:35:36;7.35;;;4.50;;
45077;SDS011;60508;42.622;25.416;2023-06-05T05:38:03;10.32;;;5.15;;
45077;SDS011;60508;42.622;25.416;2023-06-05T05:40:30;13.35;;;5.63;;
45077;SDS011;60508;42.622;25.416;2023-06-05T05:42:56;16.17;;;6.85;;
45077;SDS011;60508;42.622;25.416;2023-06-05T05:45:23;14.93;;;6.00;;
45077;SDS011;60508;42.622;25.416;2023-06-05T05:47:57;12.05;;;5.65;;
45077;SDS011;60508;42.622;25.416;2023-06-05T05:50:24;16.08;;;6.18;;
45077;SDS011;60508;42.622;25.416;2023-06-05T05:52:50;14.50;;;4.78;;
45077;SDS011;60508;42.622;25.416;2023-06-05T05:55:19;18.38;;;5.72;;
45077;SDS011;60508;42.622;25.416;2023-06-05T05:57:52;10.63;;;5.57;;
45077;SDS011;60508;42.622;25.416;2023-06-05T06:00:19;11.93;;;5.78;;
45077;SDS011;60508;42.622;25.416;2023-06-05T06:02:46;12.00;;;5.78;;
45077;SDS011;60508;42.622;25.416;2023-06-05T06:05:22;14.85;;;5.78;;
45077;SDS011;60508;42.622;25.416;2023-06-05T06:07:49;17.02;;;6.18;;
45077;SDS011;60508;42.622;25.416;2023-06-05T06:10:15;12.15;;;5.25;;
45077;SDS011;60508;42.622;25.416;2023-06-05T06:12:50;10.65;;;4.97;;
45077;SDS011;60508;42.622;25.416;2023-06-05T06:15:17;20.63;;;6.40;;
45077;SDS011;60508;42.622;25.416;2023-06-05T06:17:44;17.83;;;6.13;;
45077;SDS011;60508;42.622;25.416;2023-06-05T06:20:10;17.77;;;6.45;;
45077;SDS011;60508;42.622;25.416;2023-06-05T06:22:46;7.40;;;4.35;;
45077;SDS011;60508;42.622;25.416;2023-06-05T06:25:13;10.50;;;5.38;;
45077;SDS011;60508;42.622;25.416;2023-06-05T06:27:42;12.68;;;4.88;;
45077;SDS011;60508;42.622;25.416;2023-06-05T06:30:19;27.00;;;6.65;;
45077;SDS011;60508;42.622;25.416;2023-06-05T06:32:46;11.07;;;4.60;;
45077;SDS011;60508;42.622;25.416;2023-06-05T06:35:13;8.38;;;5.90;;
45077;SDS011;60508;42.622;25.416;2023-06-05T06:37:45;18.95;;;6.38;;
45077;SDS011;60508;42.622;25.416;2023-06-05T06:40:12;14.18;;;4.82;;
45077;SDS011;60508;42.622;25.416;2023-06-05T06:42:40;29.25;;;5.10;;
45077;SDS011;60508;42.622;25.416;2023-06-05T06:45:25;16.70;;;4.30;;
45077;SDS011;60508;42.622;25.416;2023-06-05T06:48:00;9.48;;;4.85;;
45077;SDS011;60508;42.622;25.416;2023-06-05T06:50:26;19.83;;;6.60;;
45077;SDS011;60508;42.622;25.416;2023-06-05T06:52:53;5.97;;;4.50;;
45077;SDS011;60508;42.622;25.416;2023-06-05T06:55:27;9.38;;;4.20;;
45077;SDS011;60508;42.622;25.416;2023-06-05T06:57:53;19.23;;;7.47;;
45077;SDS011;60508;42.622;25.416;2023-06-05T07:00:21;9.02;;;4.65;;
45077;SDS011;60508;42.622;25.416;2023-06-05T07:02:55;12.30;;;5.68;;
45077;SDS011;60508;42.622;25.416;2023-06-05T07:05:22;12.18;;;4.18;;
45077;SDS011;60508;42.622;25.416;2023-06-05T07:07:49;10.20;;;4.82;;
45077;SDS011;60508;42.622;25.416;2023-06-05T07:10:16;18.35;;;4.30;;
45077;SDS011;60508;42.622;25.416;2023-06-05T07:12:42;14.77;;;4.20;;
45077;SDS011;60508;42.622;25.416;2023-06-05T07:15:09;7.32;;;4.03;;
45077;SDS011;60508;42.622;25.416;2023-06-05T07:17:36;10.02;;;3.85;;
45077;SDS011;60508;42.622;25.416;2023-06-05T07:20:03;8.35;;;4.47;;
45077;SDS011;60508;42.622;25.416;2023-06-05T07:22:31;6.97;;;3.92;;
45077;SDS011;60508;42.622;25.416;2023-06-05T07:24:58;9.45;;;3.58;;
45077;SDS011;60508;42.622;25.416;2023-06-05T07:27:30;6.03;;;4.30;;
45077;SDS011;60508;42.622;25.416;2023-06-05T07:29:57;9.25;;;5.85;;
45077;SDS011;60508;42.622;25.416;2023-06-05T07:32:24;8.88;;;5.85;;
45077;SDS011;60508;42.622;25.416;2023-06-05T07:34:59;4.68;;;3.72;;
45077;SDS011;60508;42.622;25.416;2023-06-05T07:37:25;7.85;;;4.40;;
45077;SDS011;60508;42.622;25.416;2023-06-05T07:39:52;12.75;;;4.55;;
45077;SDS011;60508;42.622;25.416;2023-06-05T07:42:20;13.10;;;4.80;;
45077;SDS011;60508;42.622;25.416;2023-06-05T07:44:46;10.27;;;4.68;;
45077;SDS011;60508;42.622;25.416;2023-06-05T07:47:14;9.20;;;5.20;;
45077;SDS011;60508;42.622;25.416;2023-06-05T07:49:41;11.48;;;5.95;;
45077;SDS011;60508;42.622;25.416;2023-06-05T07:52:16;12.07;;;6.40;;
45077;SDS011;60508;42.622;25.416;2023-06-05T07:54:42;10.60;;;4.40;;
45077;SDS011;60508;42.622;25.416;2023-06-05T07:57:09;8.65;;;4.72;;
45077;SDS011;60508;42.622;25.416;2023-06-05T07:59:43;8.40;;;5.00;;
45077;SDS011;60508;42.622;25.416;2023-06-05T08:02:09;8.90;;;4.47;;
45077;SDS011;60508;42.622;25.416;2023-06-05T08:04:36;9.23;;;4.75;;
45077;SDS011;60508;42.622;25.416;2023-06-05T08:07:12;6.72;;;4.80;;
45077;SDS011;60508;42.622;25.416;2023-06-05T08:09:39;7.05;;;5.00;;
45077;SDS011;60508;42.622;25.416;2023-06-05T08:12:06;8.75;;;5.68;;
45077;SDS011;60508;42.622;25.416;2023-06-05T08:14:33;9.43;;;4.15;;
45077;SDS011;60508;42.622;25.416;2023-06-05T08:17:01;8.65;;;5.13;;
45077;SDS011;60508;42.622;25.416;2023-06-05T08:19:27;8.35;;;5.35;;
45077;SDS011;60508;42.622;25.416;2023-06-05T08:21:54;7.35;;;5.20;;
45077;SDS011;60508;42.622;25.416;2023-06-05T08:24:22;4.15;;;3.40;;
45077;SDS011;60508;42.622;25.416;2023-06-05T08:26:58;7.18;;;3.47;;
45077;SDS011;60508;42.622;25.416;2023-06-05T08:29:25;3.95;;;3.45;;
45077;SDS011;60508;42.622;25.416;2023-06-05T08:31:53;6.72;;;3.33;;
45077;SDS011;60508;42.622;25.416;2023-06-05T08:34:29;5.55;;;3.60;;
45077;SDS011;60508;42.622;25.416;2023-06-05T08:36:57;6.53;;;2.83;;
45077;SDS011;60508;42.622;25.416;2023-06-05T08:39:25;4.45;;;2.53;;
45077;SDS011;60508;42.622;25.416;2023-06-05T08:41:58;4.75;;;3.28;;
45077;SDS011;60508;42.622;25.416;2023-06-05T08:44:27;9.02;;;3.90;;
45077;SDS011;60508;42.622;25.416;2023-06-05T08:49:36;5.28;;;2.75;;
45077;SDS011;60508;42.622;25.416;2023-06-05T08:52:06;3.97;;;2.35;;
45077;SDS011;60508;42.622;25.416;2023-06-05T08:54:37;4.88;;;3.03;;
45077;SDS011;60508;42.622;25.416;2023-06-05T08:57:08;3.20;;;2.67;;
45077;SDS011;60508;42.622;25.416;2023-06-05T08:59:42;10.60;;;2.72;;
45077;SDS011;60508;42.622;25.416;2023-06-05T09:02:10;8.60;;;2.85;;
45077;SDS011;60508;42.622;25.416;2023-06-05T09:04:38;4.32;;;2.80;;
45077;SDS011;60508;42.622;25.416;2023-06-05T09:07:05;3.75;;;2.58;;
45077;SDS011;60508;42.622;25.416;2023-06-05T09:09:33;5.03;;;3.33;;
45077;SDS011;60508;42.622;25.416;2023-06-05T09:12:03;6.68;;;4.10;;
45077;SDS011;60508;42.622;25.416;2023-06-05T09:14:40;5.47;;;2.90;;
45077;SDS011;60508;42.622;25.416;2023-06-05T09:17:11;4.38;;;2.55;;
45077;SDS011;60508;42.622;25.416;2023-06-05T09:19:39;8.57;;;2.45;;
45077;SDS011;60508;42.622;25.416;2023-06-05T09:22:16;5.05;;;2.08;;
45077;SDS011;60508;42.622;25.416;2023-06-05T09:24:59;4.97;;;2.83;;
45077;SDS011;60508;42.622;25.416;2023-06-05T09:27:34;7.80;;;2.65;;
45077;SDS011;60508;42.622;25.416;2023-06-05T09:30:02;2.72;;;2.53;;
45077;SDS011;60508;42.622;25.416;2023-06-05T09:32:33;3.63;;;2.97;;
45077;SDS011;60508;42.622;25.416;2023-06-05T09:35:06;6.65;;;2.85;;
45077;SDS011;60508;42.622;25.416;2023-06-05T09:37:33;3.25;;;2.47;;
45077;SDS011;60508;42.622;25.416;2023-06-05T09:40:03;6.70;;;2.63;;
45077;SDS011;60508;42.622;25.416;2023-06-05T09:42:32;8.82;;;3.33;;
45077;SDS011;60508;42.622;25.416;2023-06-05T09:44:59;4.38;;;2.58;;
45077;SDS011;60508;42.622;25.416;2023-06-05T09:47:37;4.68;;;2.45;;
45077;SDS011;60508;42.622;25.416;2023-06-05T09:50:03;7.70;;;3.33;;
45077;SDS011;60508;42.622;25.416;2023-06-05T09:52:30;5.47;;;2.67;;
45077;SDS011;60508;42.622;25.416;2023-06-05T09:55:01;9.13;;;3.20;;
45077;SDS011;60508;42.622;25.416;2023-06-05T09:57:40;3.95;;;2.92;;
45077;SDS011;60508;42.622;25.416;2023-06-05T10:00:07;3.78;;;2.53;;
45077;SDS011;60508;42.622;25.416;2023-06-05T10:02:35;12.52;;;2.70;;
45077;SDS011;60508;42.622;25.416;2023-06-05T10:05:10;10.57;;;3.28;;
45077;SDS011;60508;42.622;25.416;2023-06-05T10:07:39;6.20;;;3.05;;
45077;SDS011;60508;42.622;25.416;2023-06-05T10:10:06;4.05;;;2.58;;
45077;SDS011;60508;42.622;25.416;2023-06-05T10:12:44;5.85;;;2.90;;
45077;SDS011;60508;42.622;25.416;2023-06-05T10:15:12;8.25;;;3.53;;
45077;SDS011;60508;42.622;25.416;2023-06-05T10:17:39;6.40;;;2.88;;
45077;SDS011;60508;42.622;25.416;2023-06-05T10:20:07;3.75;;;2.40;;
45077;SDS011;60508;42.622;25.416;2023-06-05T10:22:34;3.60;;;3.00;;
45077;SDS011;60508;42.622;25.416;2023-06-05T10:25:03;4.32;;;2.33;;
45077;SDS011;60508;42.622;25.416;2023-06-05T10:30:27;8.50;;;2.90;;
45077;SDS011;60508;42.622;25.416;2023-06-05T10:36:14;4.72;;;3.13;;
45077;SDS011;60508;42.622;25.416;2023-06-05T10:38:54;4.82;;;2.60;;
45077;SDS011;60508;42.622;25.416;2023-06-05T10:41:21;5.55;;;2.85;;
45077;SDS011;60508;42.622;25.416;2023-06-05T10:43:55;6.40;;;2.95;;
45077;SDS011;60508;42.622;25.416;2023-06-05T10:46:35;4.43;;;2.33;;
45077;SDS011;60508;42.622;25.416;2023-06-05T10:49:06;9.30;;;3.92;;
45077;SDS011;60508;42.622;25.416;2023-06-05T10:51:47;5.45;;;2.65;;
45077;SDS011;60508;42.622;25.416;2023-06-05T10:59:37;5.28;;;3.28;;
45077;SDS011;60508;42.622;25.416;2023-06-05T11:15:14;7.28;;;2.80;;
45077;SDS011;60508;42.622;25.416;2023-06-05T11:17:42;4.35;;;1.90;;
45077;SDS011;60508;42.622;25.416;2023-06-05T11:25:30;5.53;;;2.63;;
45077;SDS011;60508;42.622;25.416;2023-06-05T11:28:02;3.20;;;2.50;;
45077;SDS011;60508;42.622;25.416;2023-06-05T11:30:39;12.20;;;2.65;;
45077;SDS011;60508;42.622;25.416;2023-06-05T11:33:10;5.68;;;2.47;;
45077;SDS011;60508;42.622;25.416;2023-06-05T11:35:51;3.22;;;2.58;;
45077;SDS011;60508;42.622;25.416;2023-06-05T11:38:22;4.18;;;2.03;;
45077;SDS011;60508;42.622;25.416;2023-06-05T11:40:49;5.93;;;2.28;;
45077;SDS011;60508;42.622;25.416;2023-06-05T11:43:27;4.28;;;2.47;;
45077;SDS011;60508;42.622;25.416;2023-06-05T11:45:55;3.83;;;2.22;;
45077;SDS011;60508;42.622;25.416;2023-06-05T11:48:23;6.37;;;2.70;;
45077;SDS011;60508;42.622;25.416;2023-06-05T11:51:02;2.92;;;2.00;;
45077;SDS011;60508;42.622;25.416;2023-06-05T11:53:32;2.53;;;2.33;;
45077;SDS011;60508;42.622;25.416;2023-06-05T11:55:59;7.22;;;2.80;;
45077;SDS011;60508;42.622;25.416;2023-06-05T12:03:32;7.03;;;2.53;;
45077;SDS011;60508;42.622;25.416;2023-06-05T12:06:07;3.83;;;2.03;;
45077;SDS011;60508;42.622;25.416;2023-06-05T12:08:34;6.03;;;2.95;;
45077;SDS011;60508;42.622;25.416;2023-06-05T12:11:18;4.00;;;2.60;;
45077;SDS011;60508;42.622;25.416;2023-06-05T12:13:57;4.30;;;2.67;;
45077;SDS011;60508;42.622;25.416;2023-06-05T12:16:33;8.00;;;3.05;;
45077;SDS011;60508;42.622;25.416;2023-06-05T12:21:43;3.47;;;2.63;;
45077;SDS011;60508;42.622;25.416;2023-06-05T12:24:11;5.65;;;2.20;;
45077;SDS011;60508;42.622;25.416;2023-06-05T12:26:51;4.53;;;2.40;;
45077;SDS011;60508;42.622;25.416;2023-06-05T12:29:20;8.95;;;2.33;;
45077;SDS011;60508;42.622;25.416;2023-06-05T12:31:57;2.70;;;2.17;;
45077;SDS011;60508;42.622;25.416;2023-06-05T12:39:49;6.38;;;3.25;;
45077;SDS011;60508;42.622;25.416;2023-06-05T12:42:15;8.55;;;2.20;;
45077;SDS011;60508;42.622;25.416;2023-06-05T12:44:47;3.85;;;2.38;;
45077;SDS011;60508;42.622;25.416;2023-06-05T12:47:14;5.15;;;2.33;;
45077;SDS011;60508;42.622;25.416;2023-06-05T12:49:40;6.93;;;2.25;;
45077;SDS011;60508;42.622;25.416;2023-06-05T12:52:07;4.30;;;2.05;;
45077;SDS011;60508;42.622;25.416;2023-06-05T12:54:43;4.18;;;2.03;;
45077;SDS011;60508;42.622;25.416;2023-06-05T12:57:09;2.60;;;2.35;;
45077;SDS011;60508;42.622;25.416;2023-06-05T12:59:36;4.65;;;2.20;;
45077;SDS011;60508;42.622;25.416;2023-06-05T13:02:02;5.95;;;1.90;;
45077;SDS011;60508;42.622;25.416;2023-06-05T13:04:29;2.47;;;2.10;;
45077;SDS011;60508;42.622;25.416;2023-06-05T13:06:57;9.18;;;2.00;;
45077;SDS011;60508;42.622;25.416;2023-06-05T13:09:25;6.82;;;2.90;;
45077;SDS011;60508;42.622;25.416;2023-06-05T13:11:51;3.10;;;1.77;;
45077;SDS011;60508;42.622;25.416;2023-06-05T13:14:24;3.10;;;1.73;;
45077;SDS011;60508;42.622;25.416;2023-06-05T13:16:50;3.70;;;2.08;;
45077;SDS011;60508;42.622;25.416;2023-06-05T13:19:17;3.15;;;1.50;;
45077;SDS011;60508;42.622;25.416;2023-06-05T13:21:43;5.97;;;1.70;;
45077;SDS011;60508;42.622;25.416;2023-06-05T13:24:18;4.38;;;1.40;;
45077;SDS011;60508;42.622;25.416;2023-06-05T13:26:45;3.58;;;1.75;;
45077;SDS011;60508;42.622;25.416;2023-06-05T13:29:13;7.93;;;2.08;;
45077;SDS011;60508;42.622;25.416;2023-06-05T13:31:47;6.78;;;1.88;;
45077;SDS011;60508;42.622;25.416;2023-06-05T13:34:14;6.22;;;2.25;;
45077;SDS011;60508;42.622;25.416;2023-06-05T13:36:40;5.18;;;2.25;;
45077;SDS011;60508;42.622;25.416;2023-06-05T13:39:08;3.20;;;1.75;;
45077;SDS011;60508;42.622;25.416;2023-06-05T13:41:34;5.20;;;2.10;;
45077;SDS011;60508;42.622;25.416;2023-06-05T13:44:08;2.45;;;1.17;;
45077;SDS011;60508;42.622;25.416;2023-06-05T13:46:35;4.07;;;1.73;;
45077;SDS011;60508;42.622;25.416;2023-06-05T13:49:02;3.15;;;1.73;;
45077;SDS011;60508;42.622;25.416;2023-06-05T13:51:36;2.13;;;1.80;;
45077;SDS011;60508;42.622;25.416;2023-06-05T13:54:04;2.75;;;1.73;;
45077;SDS011;60508;42.622;25.416;2023-06-05T13:56:31;6.78;;;1.90;;
45077;SDS011;60508;42.622;25.416;2023-06-05T13:58:58;5.60;;;1.67;;
45077;SDS011;60508;42.622;25.416;2023-06-05T14:01:33;3.65;;;1.60;;
45077;SDS011;60508;42.622;25.416;2023-06-05T14:04:00;4.03;;;1.52;;
45077;SDS011;60508;42.622;25.416;2023-06-05T14:06:26;6.32;;;1.70;;
45077;SDS011;60508;42.622;25.416;2023-06-05T14:08:53;6.68;;;1.73;;
45077;SDS011;60508;42.622;25.416;2023-06-05T14:11:20;2.40;;;1.60;;
45077;SDS011;60508;42.622;25.416;2023-06-05T14:13:46;6.57;;;1.92;;
45077;SDS011;60508;42.622;25.416;2023-06-05T14:16:21;4.90;;;2.03;;
45077;SDS011;60508;42.622;25.416;2023-06-05T14:18:48;2.47;;;1.80;;
45077;SDS011;60508;42.622;25.416;2023-06-05T14:21:15;3.40;;;1.73;;
45077;SDS011;60508;42.622;25.416;2023-06-05T14:23:50;8.40;;;2.35;;
45077;SDS011;60508;42.622;25.416;2023-06-05T14:26:17;6.32;;;1.85;;
45077;SDS011;60508;42.622;25.416;2023-06-05T14:28:43;3.38;;;2.10;;
45077;SDS011;60508;42.622;25.416;2023-06-05T14:31:10;5.43;;;2.30;;
45077;SDS011;60508;42.622;25.416;2023-06-05T14:33:37;4.00;;;2.17;;
45077;SDS011;60508;42.622;25.416;2023-06-05T14:36:03;5.20;;;2.47;;
45077;SDS011;60508;42.622;25.416;2023-06-05T14:38:31;3.08;;;2.28;;
45077;SDS011;60508;42.622;25.416;2023-06-05T14:40:57;4.57;;;2.35;;
45077;SDS011;60508;42.622;25.416;2023-06-05T14:43:25;2.38;;;2.10;;
45077;SDS011;60508;42.622;25.416;2023-06-05T14:45:52;4.43;;;2.78;;
45077;SDS011;60508;42.622;25.416;2023-06-05T14:48:19;6.13;;;2.53;;
45077;SDS011;60508;42.622;25.416;2023-06-05T14:50:53;5.57;;;2.60;;
45077;SDS011;60508;42.622;25.416;2023-06-05T14:53:20;12.98;;;3.78;;
45077;SDS011;60508;42.622;25.416;2023-06-05T14:55:46;6.88;;;3.40;;
45077;SDS011;60508;42.622;25.416;2023-06-05T14:58:21;3.35;;;2.55;;
45077;SDS011;60508;42.622;25.416;2023-06-05T15:00:47;7.22;;;3.17;;
45077;SDS011;60508;42.622;25.416;2023-06-05T15:03:14;5.50;;;2.78;;
45077;SDS011;60508;42.622;25.416;2023-06-05T15:05:48;3.50;;;3.20;;
45077;SDS011;60508;42.622;25.416;2023-06-05T15:08:15;6.07;;;3.30;;
45077;SDS011;60508;42.622;25.416;2023-06-05T15:10:42;8.18;;;4.95;;
45077;SDS011;60508;42.622;25.416;2023-06-05T15:13:08;19.65;;;7.15;;
45077;SDS011;60508;42.622;25.416;2023-06-05T15:15:44;12.75;;;8.98;;
45077;SDS011;60508;42.622;25.416;2023-06-05T15:18:11;12.10;;;6.32;;
45077;SDS011;60508;42.622;25.416;2023-06-05T15:20:38;11.50;;;4.10;;
45077;SDS011;60508;42.622;25.416;2023-06-05T15:23:14;9.25;;;4.55;;
45077;SDS011;60508;42.622;25.416;2023-06-05T15:25:40;11.65;;;5.47;;
45077;SDS011;60508;42.622;25.416;2023-06-05T15:28:07;14.38;;;9.38;;
45077;SDS011;60508;42.622;25.416;2023-06-05T15:30:33;10.25;;;5.07;;
45077;SDS011;60508;42.622;25.416;2023-06-05T15:33:00;7.18;;;5.45;;
45077;SDS011;60508;42.622;25.416;2023-06-05T15:35:34;8.60;;;6.13;;
45077;SDS011;60508;42.622;25.416;2023-06-05T15:38:01;10.05;;;6.07;;